Terminal Aerodrome Forecast
Issued by NWS

Home | Current Version | Previous Version | Text Only | Print | Product List | Glossary On
Versions: 1 2 3 4 5 6 7 8 9 10 11 12 13 14 15 16 17 18 19 20 21 22 23 24 25 26 27 28 29 30 31 32 33 34 35 36 37
000
FTUS45 KGJT 011239 AAA
TAFMTJ
TAF AMD
KMTJ 011239Z 0113/0212 15005KT P6SM VCSH SCT025 OVC070
     FM011400 14003KT P6SM VCSH SCT015 BKN025
     FM012200 19005KT 4SM -SNRA BR SCT015 BKN035 OVC050
     FM020200 29006KT 5SM -SN BR FEW020 OVC040
     FM020600 13005KT P6SM -SN VCFG SCT015 BKN025=

USA.gov is the U.S. government's official web portal to all federal, state and local government web resources and services.